EZY84MF EGKK-EGJJ
Flight info
| Callsign | EZY84MF |
|---|---|
| Flight time | 0h 38m |
| Altitude | 24000 |
| Route | IMVUR N63 LELNA |
| Aircraft | A320/M-SDE2E3FGHIJ1RWXYZ/LB1 |
Departure
| Time | 2026-05-06 13:42 |
|---|---|
| Airport | London Gatwick Airport (EGKK) |
Arrival
| Time | 2026-05-06 14:21 |
|---|---|
| Airport | Jersey Airport (EGJJ) |
| Time | Latitude | Longitude | Altitude | Speed | Heading |
|---|---|---|---|---|---|
| 2026-05-06 13:10 | 51.15512 | -0.16710 | 203 ft | 0 kts | 347° |
| 2026-05-06 13:10 | 51.15507 | -0.16773 | 207 ft | 0 kts | 348° |
| 2026-05-06 13:30 | 51.15492 | -0.16770 | 212 ft | 3 kts | 352° |
| 2026-05-06 13:31 | 51.15467 | -0.16759 | 211 ft | 4 kts | 327° |
| 2026-05-06 13:31 | 51.15449 | -0.16730 | 213 ft | 4 kts | 293° |
| 2026-05-06 13:31 | 51.15445 | -0.16712 | 205 ft | 1 kts | 289° |
| 2026-05-06 13:35 | 51.15451 | -0.16742 | 215 ft | 3 kts | 289° |
| 2026-05-06 13:35 | 51.15455 | -0.16771 | 209 ft | 3 kts | 275° |
| 2026-05-06 13:35 | 51.15448 | -0.16844 | 207 ft | 9 kts | 259° |
| 2026-05-06 13:35 | 51.15437 | -0.16930 | 203 ft | 7 kts | 256° |
| 2026-05-06 13:36 | 51.15426 | -0.17002 | 207 ft | 6 kts | 257° |
| 2026-05-06 13:36 | 51.15418 | -0.17061 | 213 ft | 5 kts | 257° |
| 2026-05-06 13:36 | 51.15409 | -0.17120 | 203 ft | 7 kts | 257° |
| 2026-05-06 13:36 | 51.15390 | -0.17185 | 206 ft | 6 kts | 244° |
| 2026-05-06 13:37 | 51.15373 | -0.17259 | 214 ft | 8 kts | 252° |
| 2026-05-06 13:37 | 51.15356 | -0.17336 | 210 ft | 7 kts | 235° |
| 2026-05-06 13:37 | 51.15322 | -0.17364 | 207 ft | 4 kts | 179° |
| 2026-05-06 13:37 | 51.15292 | -0.17352 | 209 ft | 6 kts | 163° |
| 2026-05-06 13:38 | 51.15232 | -0.17367 | 217 ft | 10 kts | 230° |
| 2026-05-06 13:38 | 51.15215 | -0.17452 | 213 ft | 7 kts | 258° |
| 2026-05-06 13:38 | 51.15206 | -0.17515 | 205 ft | 6 kts | 258° |
| 2026-05-06 13:38 | 51.15190 | -0.17637 | 207 ft | 17 kts | 258° |
| 2026-05-06 13:39 | 51.15155 | -0.17892 | 212 ft | 29 kts | 257° |
| 2026-05-06 13:39 | 51.15106 | -0.18250 | 206 ft | 37 kts | 258° |
| 2026-05-06 13:39 | 51.15050 | -0.18690 | 203 ft | 43 kts | 257° |
| 2026-05-06 13:39 | 51.14981 | -0.19183 | 211 ft | 47 kts | 259° |
| 2026-05-06 13:40 | 51.14906 | -0.19710 | 211 ft | 50 kts | 257° |
| 2026-05-06 13:40 | 51.14825 | -0.20267 | 210 ft | 53 kts | 257° |
| 2026-05-06 13:40 | 51.14762 | -0.20689 | 207 ft | 16 kts | 253° |
| 2026-05-06 13:40 | 51.14712 | -0.20717 | 202 ft | 6 kts | 170° |
| 2026-05-06 13:41 | 51.14652 | -0.20696 | 213 ft | 9 kts | 168° |
| 2026-05-06 13:41 | 51.14609 | -0.20682 | 207 ft | 4 kts | 168° |
| 2026-05-06 13:41 | 51.14587 | -0.20637 | 214 ft | 11 kts | 92° |
| 2026-05-06 13:41 | 51.14610 | -0.20490 | 209 ft | 17 kts | 77° |
| 2026-05-06 13:42 | 51.14677 | -0.20003 | 205 ft | 81 kts | 77° |
| 2026-05-06 13:42 | 51.14844 | -0.18790 | 209 ft | 140 kts | 77° |
| 2026-05-06 13:42 | 51.15074 | -0.17112 | 581 ft | 158 kts | 75° |
| 2026-05-06 13:42 | 51.15326 | -0.15393 | 1348 ft | 161 kts | 72° |
| 2026-05-06 13:43 | 51.15590 | -0.13660 | 2113 ft | 164 kts | 72° |
| 2026-05-06 13:43 | 51.15777 | -0.12429 | 2357 ft | 180 kts | 72° |
| 2026-05-06 13:43 | 51.16078 | -0.10373 | 2715 ft | 203 kts | 74° |
| 2026-05-06 13:43 | 51.16403 | -0.08045 | 3089 ft | 222 kts | 74° |
| 2026-05-06 13:44 | 51.17415 | -0.05320 | 3465 ft | 220 kts | 26° |
| 2026-05-06 13:44 | 51.18884 | -0.04915 | 4445 ft | 217 kts | 354° |
| 2026-05-06 13:44 | 51.19898 | -0.05141 | 5101 ft | 218 kts | 349° |
| 2026-05-06 13:44 | 51.21825 | -0.06063 | 6293 ft | 222 kts | 325° |
| 2026-05-06 13:45 | 51.22536 | -0.07279 | 6856 ft | 226 kts | 300° |
| 2026-05-06 13:45 | 51.22701 | -0.12747 | 7959 ft | 270 kts | 263° |
| 2026-05-06 13:45 | 51.22329 | -0.15724 | 8821 ft | 276 kts | 261° |
| 2026-05-06 13:46 | 51.21906 | -0.18743 | 9715 ft | 281 kts | 259° |
| 2026-05-06 13:46 | 51.21482 | -0.21816 | 10538 ft | 286 kts | 261° |
| 2026-05-06 13:46 | 51.21073 | -0.24925 | 11404 ft | 288 kts | 261° |
| 2026-05-06 13:46 | 51.20679 | -0.28077 | 12222 ft | 292 kts | 261° |
| 2026-05-06 13:47 | 51.20297 | -0.31270 | 13071 ft | 295 kts | 261° |
| 2026-05-06 13:47 | 51.19917 | -0.34502 | 13885 ft | 298 kts | 261° |
| 2026-05-06 13:47 | 51.19517 | -0.37763 | 14660 ft | 300 kts | 260° |
| 2026-05-06 13:47 | 51.19092 | -0.41041 | 15407 ft | 303 kts | 259° |
| 2026-05-06 13:48 | 51.18662 | -0.44291 | 16153 ft | 305 kts | 259° |
| 2026-05-06 13:48 | 51.18223 | -0.47593 | 16880 ft | 309 kts | 259° |
| 2026-05-06 13:48 | 51.17777 | -0.50952 | 17630 ft | 312 kts | 259° |
| 2026-05-06 13:48 | 51.17193 | -0.54314 | 18239 ft | 320 kts | 250° |
| 2026-05-06 13:49 | 51.16314 | -0.57699 | 18362 ft | 341 kts | 248° |
| 2026-05-06 13:49 | 51.15365 | -0.61247 | 18700 ft | 352 kts | 248° |
| 2026-05-06 13:49 | 51.14394 | -0.64856 | 19211 ft | 358 kts | 248° |
| 2026-05-06 13:49 | 51.13408 | -0.68514 | 19777 ft | 361 kts | 248° |
| 2026-05-06 13:50 | 51.12409 | -0.72219 | 20385 ft | 364 kts | 248° |
| 2026-05-06 13:50 | 51.11410 | -0.75934 | 20884 ft | 366 kts | 248° |
| 2026-05-06 13:50 | 51.10418 | -0.79631 | 20991 ft | 358 kts | 248° |
| 2026-05-06 13:50 | 51.09463 | -0.83200 | 20995 ft | 345 kts | 248° |
| 2026-05-06 13:51 | 51.08530 | -0.86695 | 20995 ft | 341 kts | 248° |
| 2026-05-06 13:51 | 51.07603 | -0.90158 | 20995 ft | 339 kts | 248° |
| 2026-05-06 13:51 | 51.06675 | -0.93600 | 20994 ft | 339 kts | 248° |
| 2026-05-06 13:51 | 51.05741 | -0.97045 | 20978 ft | 340 kts | 247° |
| 2026-05-06 13:52 | 51.04803 | -1.00498 | 20980 ft | 340 kts | 248° |
| 2026-05-06 13:52 | 51.03868 | -1.03940 | 20980 ft | 339 kts | 248° |
| 2026-05-06 13:52 | 51.02934 | -1.07381 | 20996 ft | 339 kts | 248° |
| 2026-05-06 13:52 | 51.02001 | -1.10819 | 20997 ft | 339 kts | 248° |
| 2026-05-06 13:53 | 51.01065 | -1.14260 | 20997 ft | 340 kts | 248° |
| 2026-05-06 13:53 | 51.00127 | -1.17708 | 21001 ft | 340 kts | 248° |
| 2026-05-06 13:53 | 50.99186 | -1.21147 | 21009 ft | 339 kts | 248° |
| 2026-05-06 13:53 | 50.98244 | -1.24581 | 21009 ft | 339 kts | 247° |
| 2026-05-06 13:54 | 50.97302 | -1.28015 | 21005 ft | 339 kts | 247° |
| 2026-05-06 13:54 | 50.96230 | -1.31350 | 21005 ft | 340 kts | 238° |
| 2026-05-06 13:54 | 50.94733 | -1.34256 | 21006 ft | 342 kts | 226° |
| 2026-05-06 13:54 | 50.92861 | -1.36574 | 21004 ft | 344 kts | 213° |
| 2026-05-06 13:55 | 50.90733 | -1.38350 | 20999 ft | 345 kts | 208° |
| 2026-05-06 13:55 | 50.88591 | -1.40058 | 20998 ft | 345 kts | 208° |
| 2026-05-06 13:55 | 50.86445 | -1.41768 | 20991 ft | 345 kts | 208° |
| 2026-05-06 13:55 | 50.84297 | -1.43478 | 20989 ft | 345 kts | 208° |
| 2026-05-06 13:56 | 50.82150 | -1.45184 | 20986 ft | 346 kts | 208° |
| 2026-05-06 13:56 | 50.80002 | -1.46892 | 20984 ft | 346 kts | 208° |
| 2026-05-06 13:56 | 50.77857 | -1.48599 | 20984 ft | 346 kts | 208° |
| 2026-05-06 13:56 | 50.75707 | -1.50309 | 20985 ft | 346 kts | 208° |
| 2026-05-06 13:57 | 50.73559 | -1.52014 | 20984 ft | 346 kts | 208° |
| 2026-05-06 13:57 | 50.71409 | -1.53718 | 20985 ft | 346 kts | 208° |
| 2026-05-06 13:57 | 50.69259 | -1.55418 | 20986 ft | 346 kts | 208° |
| 2026-05-06 13:57 | 50.67108 | -1.57122 | 20987 ft | 346 kts | 208° |
| 2026-05-06 13:58 | 50.64964 | -1.58816 | 20987 ft | 346 kts | 208° |
| 2026-05-06 13:58 | 50.62807 | -1.60520 | 20982 ft | 346 kts | 208° |
| 2026-05-06 13:58 | 50.60661 | -1.62213 | 20977 ft | 346 kts | 208° |
| 2026-05-06 13:58 | 50.58502 | -1.63914 | 20981 ft | 346 kts | 208° |
| 2026-05-06 13:59 | 50.56347 | -1.65607 | 20982 ft | 346 kts | 208° |
| 2026-05-06 13:59 | 50.54190 | -1.67299 | 20986 ft | 346 kts | 208° |
| 2026-05-06 13:59 | 50.52034 | -1.68989 | 20987 ft | 346 kts | 208° |
| 2026-05-06 13:59 | 50.49878 | -1.70677 | 20994 ft | 346 kts | 208° |
| 2026-05-06 14:00 | 50.47719 | -1.72366 | 20995 ft | 346 kts | 208° |
| 2026-05-06 14:00 | 50.45560 | -1.74052 | 20997 ft | 346 kts | 208° |
| 2026-05-06 14:00 | 50.43404 | -1.75738 | 20999 ft | 346 kts | 208° |
| 2026-05-06 14:00 | 50.41251 | -1.77423 | 21000 ft | 347 kts | 208° |
| 2026-05-06 14:01 | 50.39096 | -1.79107 | 20996 ft | 347 kts | 208° |
| 2026-05-06 14:01 | 50.36935 | -1.80787 | 20996 ft | 347 kts | 208° |
| 2026-05-06 14:01 | 50.34769 | -1.82467 | 20997 ft | 347 kts | 208° |
| 2026-05-06 14:01 | 50.32607 | -1.84146 | 20998 ft | 347 kts | 208° |
| 2026-05-06 14:02 | 50.30447 | -1.85829 | 21001 ft | 347 kts | 208° |
| 2026-05-06 14:02 | 50.28289 | -1.87510 | 21004 ft | 347 kts | 208° |
| 2026-05-06 14:02 | 50.26127 | -1.89184 | 21007 ft | 347 kts | 208° |
| 2026-05-06 14:02 | 50.23967 | -1.90854 | 21008 ft | 347 kts | 208° |
| 2026-05-06 14:03 | 50.21805 | -1.92525 | 21011 ft | 347 kts | 208° |
| 2026-05-06 14:03 | 50.19644 | -1.94198 | 21013 ft | 347 kts | 208° |
| 2026-05-06 14:03 | 50.17485 | -1.95869 | 21008 ft | 346 kts | 208° |
| 2026-05-06 14:03 | 50.15326 | -1.97534 | 21008 ft | 346 kts | 207° |
| 2026-05-06 14:04 | 50.13164 | -1.99196 | 21006 ft | 347 kts | 207° |
| 2026-05-06 14:04 | 50.10999 | -2.00860 | 21008 ft | 347 kts | 207° |
| 2026-05-06 14:04 | 50.08840 | -2.02520 | 21007 ft | 347 kts | 207° |
| 2026-05-06 14:04 | 50.06677 | -2.04181 | 21007 ft | 346 kts | 207° |
| 2026-05-06 14:05 | 50.04514 | -2.05841 | 21006 ft | 346 kts | 207° |
| 2026-05-06 14:05 | 50.02365 | -2.07488 | 21010 ft | 346 kts | 207° |
| 2026-05-06 14:05 | 50.00204 | -2.09143 | 21010 ft | 346 kts | 207° |
| 2026-05-06 14:05 | 49.97993 | -2.10636 | 21008 ft | 347 kts | 199° |
| 2026-05-06 14:06 | 49.95647 | -2.11552 | 21008 ft | 348 kts | 194° |
| 2026-05-06 14:06 | 49.93283 | -2.12357 | 20970 ft | 347 kts | 194° |
| 2026-05-06 14:06 | 49.90936 | -2.13154 | 20599 ft | 344 kts | 194° |
| 2026-05-06 14:06 | 49.88602 | -2.13949 | 20167 ft | 343 kts | 194° |
| 2026-05-06 14:07 | 49.86280 | -2.14742 | 19742 ft | 341 kts | 194° |
| 2026-05-06 14:07 | 49.83972 | -2.15530 | 19326 ft | 339 kts | 194° |
| 2026-05-06 14:07 | 49.81676 | -2.16309 | 18911 ft | 337 kts | 194° |
| 2026-05-06 14:07 | 49.79390 | -2.17083 | 18496 ft | 336 kts | 194° |
| 2026-05-06 14:08 | 49.77105 | -2.17859 | 18052 ft | 336 kts | 194° |
| 2026-05-06 14:08 | 49.74828 | -2.18634 | 17631 ft | 334 kts | 194° |
| 2026-05-06 14:08 | 49.72601 | -2.19392 | 17238 ft | 331 kts | 194° |
| 2026-05-06 14:08 | 49.70365 | -2.20165 | 16831 ft | 328 kts | 195° |
| 2026-05-06 14:09 | 49.68159 | -2.21053 | 16424 ft | 326 kts | 197° |
| 2026-05-06 14:09 | 49.65982 | -2.22026 | 16020 ft | 325 kts | 198° |
| 2026-05-06 14:09 | 49.63818 | -2.23033 | 15616 ft | 324 kts | 198° |
| 2026-05-06 14:09 | 49.61662 | -2.24041 | 15213 ft | 324 kts | 198° |
| 2026-05-06 14:10 | 49.59506 | -2.25033 | 14816 ft | 324 kts | 198° |
| 2026-05-06 14:10 | 49.57344 | -2.26015 | 14409 ft | 324 kts | 198° |
| 2026-05-06 14:10 | 49.55181 | -2.26984 | 14006 ft | 324 kts | 198° |
| 2026-05-06 14:10 | 49.53016 | -2.27949 | 13573 ft | 324 kts | 197° |
| 2026-05-06 14:11 | 49.50849 | -2.28908 | 13148 ft | 323 kts | 198° |
| 2026-05-06 14:11 | 49.48700 | -2.29854 | 12715 ft | 320 kts | 197° |
| 2026-05-06 14:11 | 49.46563 | -2.30794 | 12304 ft | 319 kts | 197° |
| 2026-05-06 14:11 | 49.44440 | -2.31734 | 11893 ft | 317 kts | 197° |
| 2026-05-06 14:12 | 49.42329 | -2.32672 | 11484 ft | 315 kts | 197° |
| 2026-05-06 14:12 | 49.40225 | -2.33605 | 11058 ft | 314 kts | 197° |
| 2026-05-06 14:12 | 49.38129 | -2.34531 | 10647 ft | 312 kts | 197° |
| 2026-05-06 14:12 | 49.36051 | -2.35446 | 10264 ft | 310 kts | 197° |
| 2026-05-06 14:13 | 49.33986 | -2.36349 | 9889 ft | 307 kts | 197° |
| 2026-05-06 14:13 | 49.31982 | -2.37227 | 9620 ft | 292 kts | 197° |
| 2026-05-06 14:13 | 49.30038 | -2.38079 | 8849 ft | 291 kts | 197° |
| 2026-05-06 14:13 | 49.28093 | -2.38932 | 8042 ft | 291 kts | 197° |
| 2026-05-06 14:14 | 49.26152 | -2.39783 | 7256 ft | 290 kts | 197° |
| 2026-05-06 14:14 | 49.24219 | -2.40626 | 6513 ft | 288 kts | 197° |
| 2026-05-06 14:14 | 49.22284 | -2.41037 | 5948 ft | 278 kts | 172° |
| 2026-05-06 14:14 | 49.20572 | -2.39893 | 5435 ft | 268 kts | 137° |
| 2026-05-06 14:15 | 49.19608 | -2.37594 | 5157 ft | 251 kts | 106° |
| 2026-05-06 14:15 | 49.19488 | -2.35003 | 4720 ft | 243 kts | 77° |
| 2026-05-06 14:15 | 49.20221 | -2.32744 | 4245 ft | 237 kts | 45° |
| 2026-05-06 14:15 | 49.21606 | -2.31453 | 3781 ft | 238 kts | 14° |
| 2026-05-06 14:16 | 49.23249 | -2.31319 | 3403 ft | 238 kts | 348° |
| 2026-05-06 14:16 | 49.24699 | -2.32449 | 3093 ft | 236 kts | 316° |
| 2026-05-06 14:16 | 49.25530 | -2.34544 | 2630 ft | 232 kts | 283° |
| 2026-05-06 14:16 | 49.25459 | -2.36913 | 2400 ft | 218 kts | 248° |
| 2026-05-06 14:17 | 49.24581 | -2.38655 | 2263 ft | 202 kts | 214° |
| 2026-05-06 14:17 | 49.23326 | -2.39348 | 2132 ft | 190 kts | 181° |
| 2026-05-06 14:17 | 49.22063 | -2.38958 | 2046 ft | 186 kts | 156° |
| 2026-05-06 14:17 | 49.20934 | -2.38020 | 2009 ft | 184 kts | 140° |
| 2026-05-06 14:18 | 49.20090 | -2.36572 | 2008 ft | 183 kts | 119° |
| 2026-05-06 14:18 | 49.19651 | -2.34767 | 2032 ft | 182 kts | 98° |
| 2026-05-06 14:18 | 49.19670 | -2.32841 | 1888 ft | 182 kts | 82° |
| 2026-05-06 14:18 | 49.19835 | -2.30939 | 1693 ft | 178 kts | 82° |
| 2026-05-06 14:19 | 49.19986 | -2.29170 | 1447 ft | 157 kts | 82° |
| 2026-05-06 14:19 | 49.20120 | -2.27594 | 1229 ft | 143 kts | 82° |
| 2026-05-06 14:19 | 49.20248 | -2.26125 | 1006 ft | 136 kts | 82° |
| 2026-05-06 14:19 | 49.20372 | -2.24710 | 847 ft | 133 kts | 82° |
| 2026-05-06 14:20 | 49.20484 | -2.23324 | 694 ft | 130 kts | 82° |
| 2026-05-06 14:20 | 49.20596 | -2.21961 | 500 ft | 128 kts | 82° |
| 2026-05-06 14:20 | 49.20708 | -2.20625 | 310 ft | 126 kts | 82° |
| 2026-05-06 14:20 | 49.20804 | -2.19482 | 283 ft | 73 kts | 83° |
| 2026-05-06 14:21 | 49.20849 | -2.18974 | 282 ft | 41 kts | 82° |
| 2026-05-06 14:21 | 49.20878 | -2.18604 | 281 ft | 22 kts | 83° |
| 2026-05-06 14:21 | 49.20882 | -2.18423 | 280 ft | 13 kts | 111° |
| 2026-05-06 14:21 | 49.20812 | -2.18374 | 283 ft | 10 kts | 187° |
| 2026-05-06 14:22 | 49.20758 | -2.18433 | 283 ft | 9 kts | 220° |
| 2026-05-06 14:22 | 49.20732 | -2.18516 | 283 ft | 10 kts | 261° |
| 2026-05-06 14:22 | 49.20723 | -2.18654 | 282 ft | 16 kts | 264° |
| 2026-05-06 14:22 | 49.20706 | -2.18836 | 282 ft | 17 kts | 261° |
| 2026-05-06 14:23 | 49.20692 | -2.19008 | 282 ft | 16 kts | 263° |
| 2026-05-06 14:23 | 49.20680 | -2.19170 | 282 ft | 15 kts | 265° |
| 2026-05-06 14:23 | 49.20694 | -2.19319 | 281 ft | 14 kts | 284° |
| 2026-05-06 14:23 | 49.20708 | -2.19454 | 281 ft | 13 kts | 259° |
| 2026-05-06 14:24 | 49.20692 | -2.19582 | 281 ft | 12 kts | 257° |
| 2026-05-06 14:24 | 49.20641 | -2.19667 | 281 ft | 11 kts | 206° |
| 2026-05-06 14:24 | 49.20612 | -2.19760 | 281 ft | 10 kts | 264° |
| 2026-05-06 14:24 | 49.20606 | -2.19866 | 281 ft | 12 kts | 264° |
| 2026-05-06 14:25 | 49.20547 | -2.19928 | 280 ft | 11 kts | 172° |
| 2026-05-06 14:25 | 49.20473 | -2.19920 | 280 ft | 10 kts | 178° |
| 2026-05-06 14:25 | 49.20429 | -2.19870 | 281 ft | 8 kts | 88° |
| 2026-05-06 14:25 | 49.20439 | -2.19760 | 281 ft | 12 kts | 86° |
| 2026-05-06 14:26 | 49.20439 | -2.19649 | 281 ft | 6 kts | 91° |
| 2026-05-06 14:26 | 49.20469 | -2.19623 | 281 ft | 4 kts | 10° |
| 2026-05-06 14:26 | 49.20484 | -2.19619 | 284 ft | 1 kts | 11° |
| 2026-05-06 14:26 | 49.20484 | -2.19618 | 284 ft | 0 kts | 11° |
| 2026-05-06 14:31 | 49.20488 | -2.19618 | 283 ft | 0 kts | 8° |
| 2026-05-06 14:31 | 49.20356 | -2.19446 | 286 ft | 0 kts | 193° |
| 2026-05-06 14:32 | 49.20493 | -2.19733 | 285 ft | 0 kts | 352° |